KBFI/BFI METAR and TAF weather

Enter ICAO airport designator
Station Type Date Time Source
KBFI METAR 2020/07/07 08:53 UTC NOAA

KBFI 070853Z 18008G15KT 10SM OVC047 15/09 A3003 RMK AO2 SLP169 T01500094 50003


Station Type Date Time Source
KBFI Decoded METAR 2020/07/07 08:53 UTC NOAA

SEATTLE BOEING FIELD, WA, United States (KBFI) 47-33N 122-19W 4M
Jul 07, 2020 - 04:53 AM EDT / 2020.07.07 0853 UTC
Wind: from the S (180 degrees) at 9 MPH (8 KT) gusting to 17 MPH (15 KT):0
Visibility: 10 mile(s):0
Sky conditions: overcast
Temperature: 59.0 F (15.0 C)
Dew Point: 48.9 F (9.4 C)
Relative Humidity: 69%
Pressure (altimeter): 30.03 in. Hg (1016 hPa)
Pressure tendency: 0.01 inches (0.3 hPa) higher than three hours ago
ob: KBFI 070853Z 18008G15KT 10SM OVC047 15/09 A3003 RMK AO2 SLP169 T01500094 50003
cycle: 9

Station Type Date Time Source
KBFI TAF 2020/07/07 06:36 UTC NOAA

TAF KBFI 070535Z 0706/0806 22008KT P6SM OVC045
FM071400 18008KT P6SM VCSH OVC030
FM072100 18008KT P6SM VCSH BKN040 BKN060

Example: see airport list